Time;durP1;ratioP1;P1;durP2;ratioP2;P2;SDS_P1;SDS_P2;PMS_P1;PMS_P2;Temp;Humidity;BMP_temperature;BMP_pressure;BME280_temperature;BME280_humidity;BME280_pressure;Samples;Min_cycle;Max_cycle;Signal;HPM_P1;HPM_P2
2023/05/13 00:01:15;;;;;;;3.00;2.50;;;11.00;99.90;;;10.53;100.00;97210.81;4996793;28;20100;-37
2023/05/13 00:03:41;;;;;;;3.42;2.58;;;11.00;99.90;;;10.45;100.00;97201.44;4990114;28;20058;-37
2023/05/13 00:06:07;;;;;;;3.42;2.70;;;10.90;99.90;;;10.44;100.00;97222.59;4990217;28;20033;-37
2023/05/13 00:08:33;;;;;;;4.13;2.30;;;10.90;99.90;;;10.42;100.00;97216.53;4997060;28;20183;-37
2023/05/13 00:10:59;;;;;;;3.97;2.28;;;10.90;99.90;;;10.39;100.00;97209.63;4994992;28;20106;-37
2023/05/13 00:13:25;;;;;;;3.33;2.45;;;10.90;99.90;;;10.32;100.00;97208.97;4999308;28;20057;-37
2023/05/13 00:15:51;;;;;;;4.80;2.35;;;10.80;99.90;;;10.32;100.00;97206.34;4996915;28;20428;-37
2023/05/13 00:18:17;;;;;;;2.22;2.03;;;10.80;99.90;;;10.32;100.00;97213.41;4996197;28;20474;-37
2023/05/13 00:20:42;;;;;;;3.17;2.53;;;10.80;99.90;;;10.31;100.00;97214.31;4997177;28;20026;-37
2023/05/13 00:23:08;;;;;;;3.17;2.40;;;10.80;99.90;;;10.32;100.00;97216.03;4993927;28;20038;-37
2023/05/13 00:25:34;;;;;;;3.97;2.47;;;10.80;99.90;;;10.36;100.00;97211.50;4982049;28;20045;-36
2023/05/13 00:28:00;;;;;;;2.67;2.42;;;10.80;99.90;;;10.37;100.00;97206.16;4994421;28;20038;-36
2023/05/13 00:30:26;;;;;;;3.67;2.47;;;10.80;99.90;;;10.39;100.00;97216.63;4994792;28;20556;-36
2023/05/13 00:32:51;;;;;;;3.20;2.15;;;10.80;99.90;;;10.39;100.00;97211.38;4995867;28;20041;-36
2023/05/13 00:35:17;;;;;;;2.95;2.22;;;10.80;99.90;;;10.40;100.00;97206.03;4995154;28;20030;-36
2023/05/13 00:37:43;;;;;;;2.85;2.33;;;10.80;99.90;;;10.40;100.00;97211.31;4995569;28;20069;-36
2023/05/13 00:40:20;;;;;;;2.40;2.20;;;10.80;99.90;;;10.40;100.00;97206.03;4997769;28;20188;-36
2023/05/13 00:42:45;;;;;;;3.97;2.22;;;10.90;99.90;;;10.40;100.00;97202.56;4996896;28;20037;-36
2023/05/13 00:45:11;;;;;;;4.03;3.10;;;10.90;99.90;;;10.39;100.00;97214.88;4995281;28;20061;-36
2023/05/13 00:47:39;;;;;;;2.78;2.25;;;10.80;99.90;;;10.36;100.00;97209.72;4987814;28;20034;-36
2023/05/13 00:50:06;;;;;;;3.33;2.50;;;10.80;99.90;;;10.38;100.00;97207.88;4973001;28;20172;-36
2023/05/13 00:52:32;;;;;;;4.88;2.42;;;10.80;99.90;;;10.34;100.00;97205.41;4981498;28;20042;-36
2023/05/13 00:54:58;;;;;;;3.22;2.30;;;10.80;99.90;;;10.39;100.00;97214.00;4988462;28;20030;-36
2023/05/13 00:57:24;;;;;;;2.95;2.15;;;10.80;99.90;;;10.36;100.00;97211.50;4972312;28;20038;-37
2023/05/13 00:59:49;;;;;;;3.83;2.47;;;10.80;99.90;;;10.36;100.00;97208.88;4992207;28;20455;-36
2023/05/13 01:02:43;;;;;;;4.82;2.50;;;10.80;99.90;;;10.24;100.00;97199.63;4984598;28;20041;-37
2023/05/13 01:05:18;;;;;;;4.13;3.10;;;10.70;99.90;;;10.26;100.00;97210.97;4993885;28;20036;-36
2023/05/13 01:08:08;;;;;;;2.70;2.45;;;10.70;99.90;;;10.22;100.00;97212.00;4977445;28;20571;-36
2023/05/13 01:10:50;;;;;;;3.90;3.15;;;10.70;99.90;;;10.13;100.00;97216.69;4981527;28;20049;-36
2023/05/13 01:13:23;;;;;;;7.45;2.53;;;10.60;99.90;;;10.07;100.00;97203.75;4991030;28;21229;-36
2023/05/13 01:16:13;;;;;;;3.28;2.45;;;10.50;99.90;;;10.00;100.00;97209.34;4978379;28;21517;-36
2023/05/13 01:18:55;;;;;;;2.38;2.15;;;10.40;99.90;;;9.96;100.00;97211.22;4983127;28;20501;-36
2023/05/13 01:21:28;;;;;;;3.15;2.85;;;10.40;99.90;;;9.88;100.00;97213.28;4994171;28;20041;-36
2023/05/13 01:23:54;;;;;;;;;;;10.40;99.90;;;9.80;100.00;97210.94;4985618;28;20088;-36
2023/05/13 01:26:22;;;;;;;4.40;3.03;;;10.30;99.90;;;9.71;100.00;97209.50;4976307;28;19920;-36
2023/05/13 01:28:48;;;;;;;6.53;3.15;;;10.20;99.90;;;9.58;100.00;97209.97;4980144;28;20124;-36
2023/05/13 01:31:14;;;;;;;3.40;2.60;;;10.10;99.90;;;9.49;100.00;97217.31;4988733;28;20057;-36
2023/05/13 01:33:41;;;;;;;3.55;2.60;;;10.00;99.90;;;9.42;100.00;97215.81;4986467;28;20056;-36
2023/05/13 01:36:07;;;;;;;3.03;2.67;;;9.90;99.90;;;9.31;100.00;97208.28;4980810;28;20026;-36
2023/05/13 01:38:35;;;;;;;3.50;2.90;;;9.80;99.90;;;9.29;100.00;97219.78;4991973;28;20121;-36
2023/05/13 01:41:02;;;;;;;3.15;2.85;;;9.70;99.90;;;9.21;100.00;97213.94;5000476;28;20034;-36
2023/05/13 01:43:28;;;;;;;3.67;2.70;;;9.70;99.90;;;9.21;100.00;97216.56;4998993;28;20414;-36
2023/05/13 01:45:54;;;;;;;4.10;2.50;;;9.60;99.90;;;9.21;100.00;97216.56;4984598;28;20931;-37
2023/05/13 01:48:19;;;;;;;4.07;2.67;;;9.70;99.90;;;9.25;100.00;97218.16;4986155;28;20033;-36
2023/05/13 01:50:46;;;;;;;3.33;2.78;;;9.70;99.90;;;9.24;100.00;97216.44;4989787;28;20486;-36
2023/05/13 01:53:12;;;;;;;3.00;2.70;;;9.70;99.90;;;9.23;100.00;97215.56;4986260;28;20144;-36
2023/05/13 01:55:37;;;;;;;3.67;2.55;;;9.70;99.90;;;9.21;100.00;97219.19;4980274;28;20563;-36
2023/05/13 01:58:03;;;;;;;2.90;2.45;;;9.70;99.90;;;9.18;100.00;97215.72;4979438;28;20524;-36
2023/05/13 02:00:29;;;;;;;3.25;2.50;;;9.70;99.90;;;9.19;100.00;97221.88;4985739;28;20025;-36
2023/05/13 02:02:54;;;;;;;3.17;2.70;;;9.60;99.90;;;9.15;100.00;97214.97;4984521;28;20038;-36
2023/05/13 02:05:21;;;;;;;3.25;2.67;;;9.60;99.90;;;9.10;100.00;97220.41;4983720;28;20477;-36
2023/05/13 02:07:46;;;;;;;3.67;2.83;;;9.60;99.90;;;9.01;100.00;97225.97;4965774;28;20044;-36
2023/05/13 02:10:12;;;;;;;5.40;3.45;;;9.50;99.90;;;8.96;100.00;97223.50;4988678;28;20025;-36
2023/05/13 02:12:38;;;;;;;3.67;2.72;;;9.40;99.90;;;8.90;100.00;97218.44;4988026;28;20530;-36
2023/05/13 02:15:04;;;;;;;3.25;2.83;;;9.40;99.90;;;8.78;100.00;97198.66;4989160;28;20056;-36
2023/05/13 02:17:30;;;;;;;3.83;2.85;;;9.40;99.90;;;8.84;100.00;97220.41;4985951;28;20504;-36
2023/05/13 02:19:55;;;;;;;3.78;2.70;;;9.40;99.90;;;8.82;100.00;97220.47;4969090;28;20034;-36
2023/05/13 02:22:21;;;;;;;3.80;3.05;;;9.30;99.90;;;8.81;100.00;97218.75;4982465;28;20113;-36
2023/05/13 02:24:47;;;;;;;3.53;3.15;;;9.30;99.90;;;8.82;100.00;97220.47;4990715;28;20120;-36
2023/05/13 02:27:15;;;;;;;4.55;2.70;;;9.40;99.90;;;8.84;100.00;97220.41;4966606;28;20076;-36
2023/05/13 02:29:41;;;;;;;3.78;3.10;;;9.30;99.90;;;8.84;100.00;97234.41;4982380;28;20044;-36
2023/05/13 02:32:07;;;;;;;3.20;2.88;;;9.40;99.90;;;8.77;100.00;97219.75;4989050;28;20037;-36
2023/05/13 02:34:32;;;;;;;4.15;2.58;;;9.30;99.90;;;8.83;100.00;97230.09;4995463;28;20486;-36
2023/05/13 02:36:58;;;;;;;3.95;3.17;;;9.40;99.90;;;8.85;100.00;97232.66;4991825;28;20037;-36
2023/05/13 02:39:24;;;;;;;4.72;2.72;;;9.40;99.90;;;8.89;100.00;97232.50;4994040;28;20490;-36
2023/05/13 02:41:49;;;;;;;5.03;2.70;;;9.40;99.90;;;8.94;100.00;97235.00;4989290;28;20029;-36
2023/05/13 02:44:15;;;;;;;3.08;2.60;;;9.40;99.90;;;8.93;100.00;97233.25;4989086;28;20033;-36
2023/05/13 02:46:43;;;;;;;3.72;2.90;;;9.40;99.90;;;8.93;100.00;97234.09;4991287;28;20481;-36
2023/05/13 02:49:09;;;;;;;3.80;2.75;;;9.40;99.90;;;8.95;100.00;97232.31;4993753;28;20026;-36
2023/05/13 02:51:35;;;;;;;4.75;2.33;;;9.50;99.90;;;9.00;100.00;97231.28;4992455;28;20037;-36
2023/05/13 02:54:00;;;;;;;3.65;3.05;;;9.50;99.90;;;9.02;100.00;97227.69;4995961;28;20414;-36
2023/05/13 02:56:26;;;;;;;6.25;2.80;;;9.50;99.90;;;9.06;100.00;97224.06;4995593;28;20037;-36
2023/05/13 02:58:52;;;;;;;7.10;2.58;;;9.50;99.90;;;9.06;100.00;97228.44;4992836;28;20022;-36
2023/05/13 03:01:17;;;;;;;4.35;3.35;;;9.50;99.90;;;9.07;100.00;97231.03;4994696;28;20029;-36
2023/05/13 03:03:43;;;;;;;3.35;2.85;;;9.60;99.90;;;9.07;100.00;97235.44;4992824;28;21954;-36
2023/05/13 03:06:10;;;;;;;3.67;2.70;;;9.60;99.90;;;9.05;100.00;97226.75;4992097;28;20029;-36
2023/05/13 03:08:36;;;;;;;3.83;2.70;;;9.60;99.90;;;9.07;100.00;97232.81;4990100;28;20057;-36
2023/05/13 03:11:02;;;;;;;3.35;2.40;;;9.60;99.90;;;9.07;100.00;97236.28;4995186;28;20041;-36
2023/05/13 03:13:28;;;;;;;3.78;2.65;;;9.60;99.90;;;9.10;100.00;97228.28;4993787;28;20083;-36
2023/05/13 03:15:53;;;;;;;4.38;3.05;;;9.60;99.90;;;9.09;100.00;97230.97;4992449;28;20038;-36
2023/05/13 03:18:19;;;;;;;3.03;2.72;;;9.60;99.90;;;9.08;100.00;97229.25;4991996;28;20065;-36
2023/05/13 03:20:45;;;;;;;4.60;2.38;;;9.60;99.90;;;9.02;100.00;97224.19;4992523;28;20089;-36
2023/05/13 03:23:10;;;;;;;4.20;2.53;;;9.60;99.90;;;9.09;100.00;97230.97;4995410;28;20906;-36
2023/05/13 03:25:36;;;;;;;3.20;2.40;;;9.60;99.90;;;9.10;100.00;97235.34;4991285;28;20032;-36
2023/05/13 03:28:02;;;;;;;2.60;2.40;;;9.60;99.90;;;9.14;100.00;97236.94;4991211;28;20037;-36
2023/05/13 03:30:28;;;;;;;2.58;2.25;;;9.60;99.90;;;9.14;100.00;97235.16;4990832;28;20720;-36
2023/05/13 03:32:55;;;;;;;3.78;2.40;;;9.60;99.90;;;9.12;100.00;97236.16;4974121;28;20168;-36
2023/05/13 03:35:21;;;;;;;3.67;2.60;;;9.60;99.90;;;9.11;100.00;97235.25;4977706;28;20037;-36
2023/05/13 03:37:46;;;;;;;5.35;2.22;;;9.60;99.90;;;9.11;100.00;97232.63;4972867;28;20501;-36
2023/05/13 03:40:12;;;;;;;3.55;2.40;;;9.60;99.90;;;9.06;100.00;97233.69;4971290;28;20029;-36
2023/05/13 03:42:38;;;;;;;2.63;2.22;;;9.70;99.90;;;9.10;100.00;97238.81;4970267;28;20054;-36
2023/05/13 03:45:05;;;;;;;2.38;2.15;;;9.60;99.90;;;9.11;100.00;97247.56;4971676;28;20760;-36
2023/05/13 03:47:30;;;;;;;3.92;2.63;;;9.60;99.90;;;9.12;100.00;97247.53;4975897;28;20034;-36
2023/05/13 03:49:56;;;;;;;3.70;2.50;;;9.60;99.90;;;9.14;100.00;97245.69;4979508;28;20566;-36
2023/05/13 03:52:22;;;;;;;3.55;2.60;;;9.60;99.90;;;9.12;100.00;97233.50;4977185;28;20040;-36
2023/05/13 03:54:47;;;;;;;3.03;2.25;;;9.70;99.90;;;9.15;100.00;97238.66;4976632;28;20370;-36
2023/05/13 03:57:13;;;;;;;4.40;3.00;;;9.70;99.90;;;9.13;100.00;97245.75;4977636;28;20100;-36
2023/05/13 03:59:39;;;;;;;3.13;2.30;;;9.70;99.90;;;9.15;100.00;97249.19;4976376;28;20403;-36
2023/05/13 04:02:05;;;;;;;4.20;2.38;;;9.60;99.90;;;9.08;100.00;97237.13;4973438;28;20080;-36
2023/05/13 04:04:31;;;;;;;2.75;2.45;;;9.70;99.90;;;9.17;100.00;97253.50;4971341;28;20030;-36
2023/05/13 04:06:56;;;;;;;3.08;2.35;;;9.70;99.90;;;9.17;100.00;97245.59;4977021;28;20252;-36
2023/05/13 04:09:22;;;;;;;2.63;2.10;;;9.70;99.90;;;9.12;100.00;97238.78;4971440;28;20510;-36
2023/05/13 04:11:48;;;;;;;3.20;2.25;;;9.70;99.90;;;9.20;100.00;97247.25;4974193;28;20080;-36
2023/05/13 04:14:14;;;;;;;3.08;2.20;;;9.70;99.90;;;9.22;100.00;97258.56;4984210;28;20030;-36
2023/05/13 04:16:40;;;;;;;2.83;2.20;;;9.70;99.90;;;9.24;100.00;97256.78;4970326;28;20037;-36
2023/05/13 04:19:05;;;;;;;4.60;2.20;;;9.70;99.90;;;9.23;100.00;97262.09;4966225;28;20046;-36
2023/05/13 04:21:31;;;;;;;2.17;1.98;;;9.70;99.90;;;9.26;100.00;97257.59;4977462;28;20091;-36
2023/05/13 04:23:57;;;;;;;3.13;2.60;;;9.80;99.90;;;9.24;100.00;97261.16;4972282;28;20045;-36
2023/05/13 04:26:23;;;;;;;5.25;2.97;;;9.80;99.90;;;9.23;100.00;97267.34;4977247;28;20556;-36
2023/05/13 04:28:49;;;;;;;3.85;2.63;;;9.80;99.90;;;9.21;100.00;97272.66;4973787;28;20116;-36
2023/05/13 04:31:15;;;;;;;3.47;2.40;;;9.70;99.90;;;9.21;100.00;97269.19;4971924;28;20086;-37
2023/05/13 04:33:41;;;;;;;4.95;2.90;;;9.70;99.90;;;9.21;100.00;97264.78;4973348;28;20052;-36
2023/05/13 04:36:07;;;;;;;3.65;2.55;;;9.70;99.90;;;9.22;100.00;97277.00;4973470;28;20038;-36
2023/05/13 04:38:32;;;;;;;5.13;2.45;;;9.70;99.90;;;9.27;100.00;97274.22;4977266;28;20053;-36
2023/05/13 04:40:58;;;;;;;3.75;2.30;;;9.80;99.90;;;9.29;100.00;97273.25;4974096;28;20052;-36
2023/05/13 04:43:24;;;;;;;3.60;2.50;;;9.80;99.90;;;9.28;100.00;97278.59;4977453;28;20068;-36
2023/05/13 04:45:50;;;;;;;3.05;2.30;;;9.80;99.90;;;9.31;100.00;97274.09;4973266;28;20030;-36
2023/05/13 04:48:15;;;;;;;3.65;2.47;;;9.80;99.90;;;9.34;100.00;97279.22;4973286;28;23732;-36
2023/05/13 04:50:45;;;;;;;3.17;2.40;;;9.80;99.90;;;9.27;100.00;97267.19;4969048;28;22257;-36
2023/05/13 04:53:12;;;;;;;3.20;2.05;;;9.80;99.90;;;9.41;100.00;97279.88;4981050;28;20029;-36
2023/05/13 04:55:38;;;;;;;2.72;2.15;;;9.90;99.90;;;9.42;100.00;97283.38;4980069;28;20030;-36
2023/05/13 04:58:03;;;;;;;2.75;2.25;;;9.90;99.90;;;9.43;100.00;97287.72;4975633;28;20044;-36
2023/05/13 05:00:29;;;;;;;3.10;2.63;;;9.90;99.90;;;9.47;100.00;97299.88;4974329;28;20117;-36
2023/05/13 05:02:55;;;;;;;3.03;2.35;;;9.90;99.90;;;9.48;100.00;97288.44;4972358;28;20033;-36
2023/05/13 05:05:21;;;;;;;2.50;2.30;;;9.90;99.90;;;9.42;100.00;97280.72;4977858;28;20030;-36
2023/05/13 05:07:47;;;;;;;3.35;2.40;;;10.00;99.90;;;9.50;100.00;97291.88;4990948;28;20033;-36
2023/05/13 05:10:14;;;;;;;3.67;2.58;;;10.00;99.90;;;9.48;100.00;97291.91;4992870;28;20034;-36
2023/05/13 05:12:41;;;;;;;5.43;2.80;;;10.00;99.90;;;9.53;100.00;97302.31;4990167;28;20148;-36
2023/05/13 05:15:14;;;;;;;3.70;2.45;;;10.00;99.90;;;9.59;100.00;97299.44;4996851;28;20120;-36
2023/05/13 05:17:44;;;;;;;2.28;2.08;;;10.10;99.90;;;9.65;100.00;97296.59;4988596;28;20084;-36
2023/05/13 05:20:10;;;;;;;4.50;2.50;;;10.10;99.90;;;9.65;100.00;97296.59;4989251;28;20050;-36
2023/05/13 05:22:37;;;;;;;3.75;2.75;;;10.20;99.90;;;9.73;100.00;97305.09;4988286;28;20049;-36
2023/05/13 05:25:03;;;;;;;3.08;2.40;;;10.20;99.90;;;9.80;100.00;97302.22;4991698;28;20467;-36
2023/05/13 05:27:29;;;;;;;3.45;2.28;;;10.30;99.90;;;9.81;100.00;97304.81;4990461;28;20033;-36
2023/05/13 05:29:55;;;;;;;2.47;2.05;;;10.30;99.90;;;9.87;100.00;97306.38;4991971;28;20159;-36
2023/05/13 05:32:21;;;;;;;4.57;2.70;;;10.40;99.90;;;9.86;100.00;97309.94;4992053;28;20058;-36
2023/05/13 05:34:46;;;;;;;2.92;2.38;;;10.40;99.90;;;9.87;100.00;97314.25;4992840;28;20068;-36
2023/05/13 05:37:12;;;;;;;3.42;2.45;;;10.40;99.90;;;9.87;100.00;97315.16;4980022;28;20042;-36
2023/05/13 05:39:39;;;;;;;2.70;2.10;;;10.40;99.90;;;9.92;100.00;97325.50;4991074;28;20088;-36
2023/05/13 05:42:06;;;;;;;3.10;2.53;;;10.40;99.90;;;9.93;100.00;97314.91;4986535;28;20026;-36
2023/05/13 05:44:32;;;;;;;3.92;2.35;;;10.40;99.90;;;9.93;100.00;97319.34;4993151;28;20021;-36
2023/05/13 05:46:58;;;;;;;2.92;1.95;;;10.40;99.90;;;9.96;100.00;97324.50;4990045;28;20069;-36
2023/05/13 05:49:23;;;;;;;3.35;2.47;;;10.40;99.90;;;9.96;100.00;97321.00;4991541;28;20042;-36
2023/05/13 05:51:49;;;;;;;8.07;2.83;;;10.50;99.90;;;9.96;100.00;97321.00;4984799;28;20768;-36
2023/05/13 05:54:15;;;;;;;4.38;2.90;;;10.40;99.90;;;9.97;100.00;97323.56;5001562;28;20026;-37
2023/05/13 05:56:40;;;;;;;3.80;2.65;;;10.40;99.90;;;9.96;100.00;97332.41;4994164;28;20042;-36
2023/05/13 05:59:06;;;;;;;2.83;2.30;;;10.40;99.90;;;9.98;100.00;97330.56;4999452;28;20030;-36
2023/05/13 06:01:35;;;;;;;3.95;2.60;;;10.40;99.90;;;9.83;100.00;97316.16;4997145;28;20041;-35
2023/05/13 06:04:01;;;;;;;2.90;2.60;;;10.40;99.90;;;9.92;100.00;97333.41;4999408;28;20022;-36
2023/05/13 06:06:27;;;;;;;4.53;3.00;;;10.40;99.90;;;9.87;100.00;97327.44;4995672;28;20129;-36
2023/05/13 06:08:53;;;;;;;6.72;2.70;;;10.40;99.90;;;9.88;100.00;97337.06;4996307;28;20037;-36
2023/05/13 06:11:18;;;;;;;5.03;2.40;;;10.40;99.90;;;9.88;100.00;97335.28;4998731;28;20545;-36
2023/05/13 06:13:44;;;;;;;3.53;2.75;;;10.40;99.90;;;9.90;100.00;97328.19;5000249;28;20069;-36
2023/05/13 06:16:10;;;;;;;2.90;2.25;;;10.40;99.90;;;9.97;100.00;97339.38;4994564;28;20371;-36
2023/05/13 06:18:36;;;;;;;3.00;2.25;;;10.40;99.90;;;10.02;100.00;97342.72;4996584;28;20061;-36
2023/05/13 06:21:02;;;;;;;3.88;2.88;;;10.50;99.90;;;9.99;100.00;97336.69;4999861;28;20038;-36
2023/05/13 06:23:28;;;;;;;3.50;2.50;;;10.50;99.90;;;10.05;100.00;97337.34;4995520;28;20497;-36
2023/05/13 06:25:54;;;;;;;4.47;2.63;;;10.50;99.90;;;10.11;100.00;97331.84;4988517;28;20030;-36
2023/05/13 06:28:19;;;;;;;3.95;2.90;;;10.60;99.90;;;10.15;100.00;97342.28;4988400;28;20049;-36
2023/05/13 06:30:45;;;;;;;4.43;2.90;;;10.60;99.90;;;10.18;100.00;97335.13;4990776;28;20054;-36
2023/05/13 06:33:11;;;;;;;4.05;2.88;;;10.70;99.90;;;10.20;100.00;97341.19;4992558;28;20030;-36
2023/05/13 06:35:37;;;;;;;5.47;2.53;;;10.70;99.90;;;10.26;100.00;97348.00;4989029;28;20038;-36
2023/05/13 06:38:03;;;;;;;3.80;2.78;;;10.70;99.90;;;10.30;100.00;97341.69;4993175;28;20034;-35
2023/05/13 06:40:28;;;;;;;4.78;2.67;;;10.80;99.90;;;10.37;100.00;97337.09;4990343;28;20033;-35
2023/05/13 06:42:54;;;;;;;3.90;2.67;;;10.90;99.90;;;10.49;100.00;97341.94;4990800;28;20045;-36
2023/05/13 06:45:22;;;;;;;3.63;2.65;;;11.00;99.90;;;10.58;100.00;97341.56;4989317;28;20033;-36
2023/05/13 06:47:50;;;;;;;6.00;2.92;;;11.00;99.90;;;10.60;100.00;97345.00;4991960;28;20482;-36
2023/05/13 06:50:16;;;;;;;4.90;2.72;;;11.20;99.90;;;10.70;100.00;97342.91;4994391;28;20029;-36
2023/05/13 06:52:41;;;;;;;3.90;2.85;;;11.20;99.90;;;10.75;100.00;97347.97;4993047;28;20226;-36
2023/05/13 06:55:09;;;;;;;2.78;2.50;;;11.30;99.90;;;10.89;100.00;97345.66;4996265;28;20034;-36
2023/05/13 06:57:35;;;;;;;5.03;3.00;;;11.40;99.90;;;10.94;100.00;97343.72;4990772;28;20121;-36
2023/05/13 07:00:02;;;;;;;3.55;2.75;;;11.50;99.90;;;11.03;100.00;97343.34;4993546;28;20030;-36
2023/05/13 07:02:28;;;;;;;3.95;2.65;;;11.60;99.90;;;11.13;100.00;97351.78;4995514;28;20113;-36
2023/05/13 07:04:54;;;;;;;4.13;2.90;;;11.60;99.90;;;11.19;100.00;97348.88;4988898;28;20038;-36
2023/05/13 07:07:19;;;;;;;6.82;2.40;;;11.70;99.90;;;11.31;100.00;97344.03;4993301;28;20117;-36
2023/05/13 07:09:45;;;;;;;4.00;2.88;;;11.80;99.90;;;11.41;100.00;97353.28;4992299;28;20505;-36
2023/05/13 07:12:11;;;;;;;3.67;2.35;;;11.90;99.90;;;11.39;100.00;97348.06;4999314;28;20026;-36
2023/05/13 07:14:37;;;;;;;3.13;2.70;;;11.90;99.90;;;11.42;100.00;97352.38;4992733;28;20506;-37
2023/05/13 07:17:03;;;;;;;3.55;2.55;;;11.90;99.90;;;11.47;100.00;97350.41;4993257;28;20045;-36
2023/05/13 07:19:29;;;;;;;3.88;2.50;;;11.90;99.90;;;11.59;100.00;97349.91;4997240;28;20052;-36
2023/05/13 07:21:54;;;;;;;3.55;2.53;;;12.10;99.90;;;11.74;100.00;97352.81;4990616;28;20143;-36
2023/05/13 07:24:20;;;;;;;2.92;2.60;;;12.20;99.90;;;11.89;100.00;97349.50;4996703;28;20022;-36
2023/05/13 07:26:46;;;;;;;3.97;2.42;;;12.30;99.90;;;11.99;100.00;97355.31;4990847;28;20029;-36
2023/05/13 07:29:11;;;;;;;2.90;2.60;;;12.50;99.90;;;12.02;100.00;97363.97;4997049;28;20045;-36
2023/05/13 07:31:37;;;;;;;4.47;3.47;;;12.60;99.90;;;12.06;100.00;97371.72;4993422;28;20045;-36
2023/05/13 07:34:03;;;;;;;4.22;2.80;;;12.60;99.90;;;12.03;100.00;97364.81;4993965;28;20040;-36
2023/05/13 07:36:28;;;;;;;5.10;2.83;;;12.60;99.90;;;12.03;100.00;97360.38;4993642;28;20053;-36
2023/05/13 07:38:54;;;;;;;3.60;2.50;;;12.60;99.90;;;12.13;100.00;97367.91;4986785;28;20974;-36
2023/05/13 07:41:21;;;;;;;3.95;2.30;;;12.60;99.90;;;12.20;100.00;97369.34;4996451;28;20274;-36
2023/05/13 07:43:46;;;;;;;4.03;2.40;;;12.70;99.90;;;12.30;100.00;97362.72;5000164;28;20036;-37
2023/05/13 07:46:12;;;;;;;3.10;2.50;;;12.80;99.90;;;12.35;100.00;97360.75;5001651;28;20124;-37
2023/05/13 07:48:38;;;;;;;5.05;3.25;;;12.90;99.90;;;12.46;100.00;97359.41;4999900;28;20436;-37
2023/05/13 07:51:04;;;;;;;4.63;2.80;;;12.90;99.90;;;12.52;100.00;97370.56;4991370;28;20034;-37
2023/05/13 07:53:30;;;;;;;5.35;2.58;;;13.00;99.90;;;12.63;100.00;97356.00;5005468;28;20061;-37
2023/05/13 07:55:55;;;;;;;4.00;2.50;;;13.10;99.90;;;12.73;100.00;97352.84;4999390;28;20037;-37
2023/05/13 07:58:21;;;;;;;3.13;2.40;;;13.20;99.90;;;12.91;100.00;97367.00;5000060;28;20041;-37
2023/05/13 08:00:48;;;;;;;3.92;2.75;;;13.30;99.90;;;12.95;100.00;97365.94;4996760;28;20034;-37
2023/05/13 08:03:15;;;;;;;4.85;2.20;;;13.50;99.90;;;13.06;100.00;97365.41;4999747;28;20030;-36
2023/05/13 08:05:41;;;;;;;3.15;2.45;;;13.60;99.90;;;13.17;100.00;97368.44;5000584;28;20021;-37
2023/05/13 08:08:06;;;;;;;3.92;3.00;;;13.70;99.90;;;13.25;100.00;97369.84;5000612;28;20044;-37
2023/05/13 08:10:32;;;;;;;5.70;2.28;;;13.80;99.90;;;13.25;100.00;97373.34;4998614;28;20037;-37
2023/05/13 08:12:59;;;;;;;3.38;2.47;;;13.80;99.90;;;13.28;100.00;97370.56;4998530;28;20128;-37
2023/05/13 08:15:26;;;;;;;5.53;2.60;;;13.70;99.90;;;13.22;100.00;97376.13;5014231;28;20108;-37
2023/05/13 08:17:53;;;;;;;2.70;2.17;;;13.70;99.90;;;13.15;100.00;97372.94;4985572;28;20144;-37
2023/05/13 08:20:20;;;;;;;3.55;2.72;;;13.60;99.90;;;13.13;100.00;97377.44;4990617;28;20057;-37
2023/05/13 08:22:46;;;;;;;3.00;2.40;;;13.60;99.90;;;13.12;100.00;97380.19;4987872;28;20121;-38
2023/05/13 08:25:12;;;;;;;4.65;2.70;;;13.50;99.90;;;12.99;100.00;97383.41;4991194;28;20018;-37
2023/05/13 08:27:38;;;;;;;5.10;3.00;;;13.50;99.90;;;12.91;100.00;97376.75;4987168;28;20038;-37
2023/05/13 08:30:05;;;;;;;5.63;3.20;;;13.40;99.90;;;12.82;100.00;97379.81;4990180;28;20093;-38
2023/05/13 08:32:30;;;;;;;4.07;3.10;;;13.30;99.90;;;12.68;100.00;97375.16;4988491;28;20025;-37
2023/05/13 08:34:56;;;;;;;5.03;2.83;;;13.30;99.90;;;12.63;100.00;97382.44;4983892;28;20707;-37
2023/05/13 08:37:22;;;;;;;4.28;2.90;;;13.20;99.90;;;12.66;100.00;97387.59;4989363;28;20080;-37
2023/05/13 08:39:48;;;;;;;3.95;2.60;;;13.20;99.90;;;12.63;100.00;97385.09;4981546;28;20073;-37
2023/05/13 08:42:18;;;;;;;5.07;3.03;;;13.10;99.90;;;12.57;100.00;97384.44;4987413;28;20486;-37
2023/05/13 08:44:43;;;;;;;3.25;2.67;;;13.00;99.90;;;12.58;100.00;97385.31;5003154;28;20075;-37
2023/05/13 08:47:45;;;;;;;2.92;2.00;;;13.10;99.90;;;12.59;100.00;97387.88;4996718;28;20589;-37
2023/05/13 08:50:12;;;;;;;4.80;2.85;;;13.10;99.90;;;12.52;100.00;97385.56;4997244;28;20096;-37
2023/05/13 08:52:38;;;;;;;3.33;2.60;;;13.00;99.90;;;12.45;100.00;97378.84;4995429;28;20080;-37
2023/05/13 08:55:04;;;;;;;2.95;2.65;;;13.00;99.90;;;12.47;100.00;97391.09;4998262;28;20038;-37
2023/05/13 08:57:30;;;;;;;2.90;2.28;;;12.90;99.90;;;12.50;100.00;97392.72;4996444;28;20395;-35
2023/05/13 08:59:56;;;;;;;6.60;2.50;;;12.90;99.90;;;12.51;100.00;97387.38;4991916;28;20489;-35
2023/05/13 09:02:22;;;;;;;4.03;2.90;;;12.90;99.90;;;12.51;100.00;97384.72;4992423;28;20042;-35
2023/05/13 09:04:54;;;;;;;3.47;2.50;;;13.00;99.90;;;12.65;100.00;97385.88;4992489;28;20021;-35
2023/05/13 09:07:19;;;;;;;4.28;2.92;;;13.10;99.90;;;12.69;100.00;97393.63;4997022;28;20041;-35
2023/05/13 09:09:45;;;;;;;6.38;2.90;;;13.10;99.90;;;12.67;100.00;97384.91;4995507;28;20041;-35
2023/05/13 09:12:11;;;;;;;3.55;2.60;;;13.20;99.90;;;12.78;100.00;97393.19;4998064;28;20120;-34
2023/05/13 09:14:37;;;;;;;5.78;2.50;;;13.30;99.90;;;12.88;100.00;97396.25;4979074;28;20096;-36
2023/05/13 09:17:03;;;;;;;3.72;2.80;;;13.30;99.90;;;12.90;100.00;97396.19;4993093;28;20377;-36
2023/05/13 09:19:29;;;;;;;6.05;3.08;;;13.40;99.90;;;12.80;100.00;97399.28;4992681;28;20044;-36
2023/05/13 09:21:56;;;;;;;3.00;2.67;;;13.30;99.90;;;12.78;100.00;97392.34;4984915;28;20120;-36
2023/05/13 09:24:22;;;;;;;5.05;2.47;;;13.40;99.90;;;12.91;100.00;97390.84;4986700;28;20108;-36
2023/05/13 09:26:50;;;;;;;3.00;2.58;;;13.40;99.90;;;13.10;100.00;97390.84;4987373;28;20057;-36
2023/05/13 09:29:21;;;;;;;3.40;2.83;;;13.50;99.90;;;13.04;100.00;97391.13;4990671;28;20030;-36
2023/05/13 09:31:51;;;;;;;6.53;2.67;;;13.60;99.90;;;13.02;100.00;97392.13;4987486;28;20028;-36
2023/05/13 09:34:28;;;;;;;3.33;2.50;;;13.70;99.90;;;13.27;100.00;97381.22;4986603;28;20827;-36
2023/05/13 09:37:00;;;;;;;5.43;2.40;;;13.90;99.90;;;13.62;100.00;97383.97;4992470;28;21328;-36
2023/05/13 09:39:26;;;;;;;3.85;2.80;;;14.10;99.90;;;13.69;100.00;97391.56;4990719;28;20042;-36
2023/05/13 09:41:52;;;;;;;2.90;2.60;;;14.30;99.90;;;13.65;100.00;97381.19;4994882;28;20065;-36
2023/05/13 09:44:18;;;;;;;3.38;2.28;;;14.30;99.90;;;13.78;100.00;97395.53;4990895;28;20231;-36
2023/05/13 09:46:44;;;;;;;4.80;3.22;;;14.40;99.90;;;13.78;100.00;97395.53;4981296;28;20053;-36
2023/05/13 09:49:10;;;;;;;3.42;2.58;;;14.40;99.90;;;13.77;100.00;97396.47;4988500;28;20038;-36
2023/05/13 09:51:35;;;;;;;4.07;2.50;;;14.40;99.90;;;13.85;100.00;97394.28;4992028;28;20473;-36
2023/05/13 09:54:06;;;;;;;3.03;2.30;;;14.40;99.90;;;13.93;100.00;97396.56;4994495;28;20072;-36
2023/05/13 09:56:34;;;;;;;3.67;2.90;;;14.50;99.90;;;13.77;100.00;97393.81;4992808;28;20441;-36
2023/05/13 09:59:03;;;;;;;3.80;2.70;;;14.40;99.90;;;13.74;100.00;97388.66;4995815;28;20037;-36
2023/05/13 10:01:29;;;;;;;5.97;2.88;;;14.40;99.90;;;13.72;100.00;97396.69;4994294;28;20132;-36
2023/05/13 10:04:00;;;;;;;4.57;2.65;;;14.40;99.90;;;13.82;100.00;97402.41;4998613;28;20040;-36
2023/05/13 10:06:29;;;;;;;6.38;3.10;;;14.40;99.90;;;13.90;100.00;97405.50;4997840;28;20040;-36
2023/05/13 10:09:03;;;;;;;3.90;2.80;;;14.50;99.90;;;14.02;100.00;97412.00;4992207;28;20665;-36
2023/05/13 10:11:32;;;;;;;3.28;2.72;;;14.60;99.90;;;14.07;100.00;97412.63;4997770;28;20600;-36
2023/05/13 10:14:00;;;;;;;4.25;2.60;;;14.70;99.90;;;14.05;100.00;97403.03;4998051;28;20037;-36
2023/05/13 10:16:27;;;;;;;2.55;2.22;;;14.70;99.90;;;14.22;100.00;97410.97;5002423;28;20037;-36